sensor_id;sensor_type;location;lat;lon;timestamp;P1;durP1;ratioP1;P2;durP2;ratioP2
20391;SDS011;10355;53.688;10.078;2023-02-14T00:01:08;24.20;;;11.25;;
20391;SDS011;10355;53.688;10.078;2023-02-14T00:03:51;23.83;;;11.60;;
20391;SDS011;10355;53.688;10.078;2023-02-14T00:06:35;24.65;;;11.90;;
20391;SDS011;10355;53.688;10.078;2023-02-14T00:09:19;23.75;;;10.68;;
20391;SDS011;10355;53.688;10.078;2023-02-14T00:12:01;23.70;;;11.77;;
20391;SDS011;10355;53.688;10.078;2023-02-14T00:14:45;23.83;;;11.40;;
20391;SDS011;10355;53.688;10.078;2023-02-14T00:17:46;22.50;;;11.23;;
20391;SDS011;10355;53.688;10.078;2023-02-14T00:20:28;25.63;;;11.98;;
20391;SDS011;10355;53.688;10.078;2023-02-14T00:23:11;21.98;;;11.05;;
20391;SDS011;10355;53.688;10.078;2023-02-14T00:25:53;20.67;;;10.15;;
20391;SDS011;10355;53.688;10.078;2023-02-14T00:28:36;25.25;;;11.20;;
20391;SDS011;10355;53.688;10.078;2023-02-14T00:31:20;23.52;;;11.50;;
20391;SDS011;10355;53.688;10.078;2023-02-14T00:34:03;20.40;;;10.65;;
20391;SDS011;10355;53.688;10.078;2023-02-14T00:36:46;22.27;;;11.23;;
20391;SDS011;10355;53.688;10.078;2023-02-14T00:39:29;21.48;;;10.73;;
20391;SDS011;10355;53.688;10.078;2023-02-14T00:42:12;27.77;;;12.27;;
20391;SDS011;10355;53.688;10.078;2023-02-14T00:44:55;21.67;;;10.75;;
20391;SDS011;10355;53.688;10.078;2023-02-14T00:47:39;23.92;;;11.57;;
20391;SDS011;10355;53.688;10.078;2023-02-14T00:50:21;20.73;;;10.77;;
20391;SDS011;10355;53.688;10.078;2023-02-14T00:53:05;20.98;;;10.38;;
20391;SDS011;10355;53.688;10.078;2023-02-14T00:55:47;23.88;;;10.98;;
20391;SDS011;10355;53.688;10.078;2023-02-14T00:58:30;20.05;;;9.68;;
20391;SDS011;10355;53.688;10.078;2023-02-14T01:01:13;16.95;;;8.85;;
20391;SDS011;10355;53.688;10.078;2023-02-14T01:03:58;22.88;;;10.45;;
20391;SDS011;10355;53.688;10.078;2023-02-14T01:06:40;23.40;;;11.27;;
20391;SDS011;10355;53.688;10.078;2023-02-14T01:09:23;23.40;;;11.70;;
20391;SDS011;10355;53.688;10.078;2023-02-14T01:12:06;22.77;;;10.85;;
20391;SDS011;10355;53.688;10.078;2023-02-14T01:14:49;23.95;;;10.77;;
20391;SDS011;10355;53.688;10.078;2023-02-14T01:17:32;23.15;;;11.32;;
20391;SDS011;10355;53.688;10.078;2023-02-14T01:20:16;24.00;;;11.35;;
20391;SDS011;10355;53.688;10.078;2023-02-14T01:22:59;26.40;;;12.40;;
20391;SDS011;10355;53.688;10.078;2023-02-14T01:25:42;23.67;;;11.18;;
20391;SDS011;10355;53.688;10.078;2023-02-14T01:28:25;24.23;;;11.18;;
20391;SDS011;10355;53.688;10.078;2023-02-14T01:31:08;25.15;;;11.93;;
20391;SDS011;10355;53.688;10.078;2023-02-14T01:33:51;23.05;;;11.23;;
20391;SDS011;10355;53.688;10.078;2023-02-14T01:36:37;25.33;;;12.02;;
20391;SDS011;10355;53.688;10.078;2023-02-14T01:39:20;24.10;;;11.80;;
20391;SDS011;10355;53.688;10.078;2023-02-14T01:42:02;22.30;;;11.13;;
20391;SDS011;10355;53.688;10.078;2023-02-14T01:47:47;23.33;;;11.27;;
20391;SDS011;10355;53.688;10.078;2023-02-14T01:50:33;26.42;;;12.20;;
20391;SDS011;10355;53.688;10.078;2023-02-14T01:53:20;24.40;;;11.60;;
20391;SDS011;10355;53.688;10.078;2023-02-14T01:56:04;26.25;;;11.57;;
20391;SDS011;10355;53.688;10.078;2023-02-14T01:58:49;21.75;;;11.15;;
20391;SDS011;10355;53.688;10.078;2023-02-14T02:01:34;23.92;;;11.35;;
20391;SDS011;10355;53.688;10.078;2023-02-14T02:04:18;21.70;;;11.25;;
20391;SDS011;10355;53.688;10.078;2023-02-14T02:07:02;23.13;;;10.60;;
20391;SDS011;10355;53.688;10.078;2023-02-14T02:09:48;20.30;;;10.05;;
20391;SDS011;10355;53.688;10.078;2023-02-14T02:12:32;23.70;;;10.85;;
20391;SDS011;10355;53.688;10.078;2023-02-14T02:15:15;23.20;;;10.40;;
20391;SDS011;10355;53.688;10.078;2023-02-14T02:18:01;23.55;;;10.93;;
20391;SDS011;10355;53.688;10.078;2023-02-14T02:23:56;24.35;;;11.35;;
20391;SDS011;10355;53.688;10.078;2023-02-14T02:26:48;25.40;;;11.90;;
20391;SDS011;10355;53.688;10.078;2023-02-14T02:29:42;22.38;;;11.02;;
20391;SDS011;10355;53.688;10.078;2023-02-14T02:32:36;23.02;;;11.68;;
20391;SDS011;10355;53.688;10.078;2023-02-14T02:35:30;24.20;;;11.63;;
20391;SDS011;10355;53.688;10.078;2023-02-14T02:38:28;25.90;;;12.32;;
20391;SDS011;10355;53.688;10.078;2023-02-14T02:41:14;26.80;;;12.10;;
20391;SDS011;10355;53.688;10.078;2023-02-14T02:44:01;24.95;;;11.50;;
20391;SDS011;10355;53.688;10.078;2023-02-14T02:46:48;17.02;;;9.20;;
20391;SDS011;10355;53.688;10.078;2023-02-14T02:49:35;19.33;;;9.48;;
20391;SDS011;10355;53.688;10.078;2023-02-14T02:52:43;22.58;;;10.15;;
20391;SDS011;10355;53.688;10.078;2023-02-14T02:55:49;20.48;;;9.15;;
20391;SDS011;10355;53.688;10.078;2023-02-14T02:58:52;21.92;;;9.90;;
20391;SDS011;10355;53.688;10.078;2023-02-14T03:01:37;20.85;;;10.18;;
20391;SDS011;10355;53.688;10.078;2023-02-14T03:04:21;18.33;;;9.52;;
20391;SDS011;10355;53.688;10.078;2023-02-14T03:07:28;22.95;;;10.27;;
20391;SDS011;10355;53.688;10.078;2023-02-14T03:10:21;26.52;;;11.32;;
20391;SDS011;10355;53.688;10.078;2023-02-14T03:13:11;22.98;;;11.07;;
20391;SDS011;10355;53.688;10.078;2023-02-14T03:16:03;24.60;;;12.38;;
20391;SDS011;10355;53.688;10.078;2023-02-14T03:18:58;23.75;;;11.68;;
20391;SDS011;10355;53.688;10.078;2023-02-14T03:22:04;25.15;;;11.25;;
20391;SDS011;10355;53.688;10.078;2023-02-14T03:24:50;26.92;;;12.90;;
20391;SDS011;10355;53.688;10.078;2023-02-14T03:27:38;27.10;;;12.30;;
20391;SDS011;10355;53.688;10.078;2023-02-14T03:30:23;26.63;;;11.75;;
20391;SDS011;10355;53.688;10.078;2023-02-14T03:33:10;28.58;;;11.73;;
20391;SDS011;10355;53.688;10.078;2023-02-14T03:35:55;24.42;;;11.85;;
20391;SDS011;10355;53.688;10.078;2023-02-14T03:38:43;24.05;;;12.10;;
20391;SDS011;10355;53.688;10.078;2023-02-14T03:41:30;24.08;;;11.75;;
20391;SDS011;10355;53.688;10.078;2023-02-14T03:44:17;25.50;;;11.40;;
20391;SDS011;10355;53.688;10.078;2023-02-14T03:47:03;24.05;;;11.43;;
20391;SDS011;10355;53.688;10.078;2023-02-14T03:49:47;20.65;;;10.13;;
20391;SDS011;10355;53.688;10.078;2023-02-14T03:52:32;23.90;;;11.48;;
20391;SDS011;10355;53.688;10.078;2023-02-14T03:55:16;20.33;;;10.10;;
20391;SDS011;10355;53.688;10.078;2023-02-14T03:58:01;21.33;;;10.45;;
20391;SDS011;10355;53.688;10.078;2023-02-14T04:00:46;21.23;;;9.80;;
20391;SDS011;10355;53.688;10.078;2023-02-14T04:03:31;22.85;;;10.63;;
20391;SDS011;10355;53.688;10.078;2023-02-14T04:06:16;19.30;;;9.35;;
20391;SDS011;10355;53.688;10.078;2023-02-14T04:08:58;22.92;;;10.60;;
20391;SDS011;10355;53.688;10.078;2023-02-14T04:11:41;21.50;;;10.68;;
20391;SDS011;10355;53.688;10.078;2023-02-14T04:14:24;25.52;;;12.27;;
20391;SDS011;10355;53.688;10.078;2023-02-14T04:17:11;25.40;;;11.23;;
20391;SDS011;10355;53.688;10.078;2023-02-14T04:20:11;22.98;;;11.60;;
20391;SDS011;10355;53.688;10.078;2023-02-14T04:22:53;29.58;;;12.50;;
20391;SDS011;10355;53.688;10.078;2023-02-14T04:25:36;30.55;;;13.20;;
20391;SDS011;10355;53.688;10.078;2023-02-14T04:28:20;28.77;;;13.15;;
20391;SDS011;10355;53.688;10.078;2023-02-14T04:31:03;28.45;;;13.23;;
20391;SDS011;10355;53.688;10.078;2023-02-14T04:33:48;28.27;;;12.63;;
20391;SDS011;10355;53.688;10.078;2023-02-14T04:36:31;26.67;;;12.60;;
20391;SDS011;10355;53.688;10.078;2023-02-14T04:39:14;27.75;;;12.88;;
20391;SDS011;10355;53.688;10.078;2023-02-14T04:41:56;28.25;;;12.45;;
20391;SDS011;10355;53.688;10.078;2023-02-14T04:44:39;27.77;;;12.93;;
20391;SDS011;10355;53.688;10.078;2023-02-14T04:47:22;27.17;;;12.40;;
20391;SDS011;10355;53.688;10.078;2023-02-14T04:50:06;28.33;;;12.05;;
20391;SDS011;10355;53.688;10.078;2023-02-14T04:52:49;27.25;;;12.73;;
20391;SDS011;10355;53.688;10.078;2023-02-14T04:55:32;29.80;;;14.27;;
20391;SDS011;10355;53.688;10.078;2023-02-14T04:58:14;27.88;;;12.77;;
20391;SDS011;10355;53.688;10.078;2023-02-14T05:00:57;30.05;;;13.30;;
20391;SDS011;10355;53.688;10.078;2023-02-14T05:03:40;30.00;;;13.63;;
20391;SDS011;10355;53.688;10.078;2023-02-14T05:06:24;29.25;;;13.07;;
20391;SDS011;10355;53.688;10.078;2023-02-14T05:09:06;30.85;;;13.50;;
20391;SDS011;10355;53.688;10.078;2023-02-14T05:11:49;31.42;;;13.82;;
20391;SDS011;10355;53.688;10.078;2023-02-14T05:14:32;30.05;;;13.57;;
20391;SDS011;10355;53.688;10.078;2023-02-14T05:17:14;30.17;;;13.48;;
20391;SDS011;10355;53.688;10.078;2023-02-14T05:19:57;30.67;;;14.10;;
20391;SDS011;10355;53.688;10.078;2023-02-14T05:22:41;31.10;;;13.43;;
20391;SDS011;10355;53.688;10.078;2023-02-14T05:25:23;29.08;;;14.00;;
20391;SDS011;10355;53.688;10.078;2023-02-14T05:28:06;29.00;;;13.85;;
20391;SDS011;10355;53.688;10.078;2023-02-14T05:30:49;31.17;;;13.90;;
20391;SDS011;10355;53.688;10.078;2023-02-14T05:33:32;29.45;;;13.55;;
20391;SDS011;10355;53.688;10.078;2023-02-14T05:36:14;31.95;;;14.32;;
20391;SDS011;10355;53.688;10.078;2023-02-14T05:38:58;32.47;;;14.25;;
20391;SDS011;10355;53.688;10.078;2023-02-14T05:41:41;30.83;;;13.80;;
20391;SDS011;10355;53.688;10.078;2023-02-14T05:44:23;36.15;;;14.85;;
20391;SDS011;10355;53.688;10.078;2023-02-14T05:47:06;32.15;;;13.77;;
20391;SDS011;10355;53.688;10.078;2023-02-14T05:49:48;30.02;;;13.60;;
20391;SDS011;10355;53.688;10.078;2023-02-14T05:52:31;34.58;;;15.20;;
20391;SDS011;10355;53.688;10.078;2023-02-14T05:55:15;29.60;;;14.07;;
20391;SDS011;10355;53.688;10.078;2023-02-14T05:57:58;32.15;;;13.90;;
20391;SDS011;10355;53.688;10.078;2023-02-14T06:00:41;30.92;;;13.90;;
20391;SDS011;10355;53.688;10.078;2023-02-14T06:03:23;32.30;;;14.02;;
20391;SDS011;10355;53.688;10.078;2023-02-14T06:06:06;33.15;;;14.05;;
20391;SDS011;10355;53.688;10.078;2023-02-14T06:08:49;33.20;;;14.07;;
20391;SDS011;10355;53.688;10.078;2023-02-14T06:11:33;28.08;;;13.13;;
20391;SDS011;10355;53.688;10.078;2023-02-14T06:14:15;28.23;;;12.50;;
20391;SDS011;10355;53.688;10.078;2023-02-14T06:16:58;29.35;;;13.32;;
20391;SDS011;10355;53.688;10.078;2023-02-14T06:19:41;34.47;;;14.30;;
20391;SDS011;10355;53.688;10.078;2023-02-14T06:22:23;31.65;;;13.50;;
20391;SDS011;10355;53.688;10.078;2023-02-14T06:25:06;31.85;;;14.38;;
20391;SDS011;10355;53.688;10.078;2023-02-14T06:27:50;29.80;;;13.25;;
20391;SDS011;10355;53.688;10.078;2023-02-14T06:30:33;28.25;;;13.32;;
20391;SDS011;10355;53.688;10.078;2023-02-14T06:33:15;27.95;;;13.32;;
20391;SDS011;10355;53.688;10.078;2023-02-14T06:35:58;32.67;;;13.60;;
20391;SDS011;10355;53.688;10.078;2023-02-14T06:38:40;32.72;;;13.98;;
20391;SDS011;10355;53.688;10.078;2023-02-14T06:41:23;31.13;;;13.93;;
20391;SDS011;10355;53.688;10.078;2023-02-14T06:44:07;28.50;;;13.43;;
20391;SDS011;10355;53.688;10.078;2023-02-14T06:46:50;35.33;;;14.25;;
20391;SDS011;10355;53.688;10.078;2023-02-14T06:49:33;33.33;;;14.52;;
20391;SDS011;10355;53.688;10.078;2023-02-14T06:52:15;31.25;;;14.65;;
20391;SDS011;10355;53.688;10.078;2023-02-14T06:54:58;29.15;;;13.18;;
20391;SDS011;10355;53.688;10.078;2023-02-14T06:57:41;29.83;;;13.20;;
20391;SDS011;10355;53.688;10.078;2023-02-14T07:00:25;33.50;;;14.55;;
20391;SDS011;10355;53.688;10.078;2023-02-14T07:03:07;30.85;;;13.45;;
20391;SDS011;10355;53.688;10.078;2023-02-14T07:05:50;34.47;;;15.07;;
20391;SDS011;10355;53.688;10.078;2023-02-14T07:08:32;30.77;;;13.77;;
20391;SDS011;10355;53.688;10.078;2023-02-14T07:11:15;32.50;;;14.40;;
20391;SDS011;10355;53.688;10.078;2023-02-14T07:13:57;33.15;;;13.65;;
20391;SDS011;10355;53.688;10.078;2023-02-14T07:16:41;31.42;;;13.90;;
20391;SDS011;10355;53.688;10.078;2023-02-14T07:19:24;34.33;;;14.35;;
20391;SDS011;10355;53.688;10.078;2023-02-14T07:22:07;30.75;;;14.00;;
20391;SDS011;10355;53.688;10.078;2023-02-14T07:24:49;31.08;;;14.52;;
20391;SDS011;10355;53.688;10.078;2023-02-14T07:27:32;29.95;;;13.10;;
20391;SDS011;10355;53.688;10.078;2023-02-14T07:30:15;30.10;;;14.38;;
20391;SDS011;10355;53.688;10.078;2023-02-14T07:32:59;30.00;;;13.95;;
20391;SDS011;10355;53.688;10.078;2023-02-14T07:35:41;28.50;;;13.35;;
20391;SDS011;10355;53.688;10.078;2023-02-14T07:38:24;31.60;;;13.45;;
20391;SDS011;10355;53.688;10.078;2023-02-14T07:41:06;29.40;;;13.13;;
20391;SDS011;10355;53.688;10.078;2023-02-14T07:43:49;30.10;;;13.35;;
20391;SDS011;10355;53.688;10.078;2023-02-14T07:46:31;31.52;;;13.73;;
20391;SDS011;10355;53.688;10.078;2023-02-14T07:49:15;31.27;;;13.15;;
20391;SDS011;10355;53.688;10.078;2023-02-14T07:51:58;31.60;;;13.93;;
20391;SDS011;10355;53.688;10.078;2023-02-14T07:54:41;31.45;;;14.63;;
20391;SDS011;10355;53.688;10.078;2023-02-14T07:57:23;31.50;;;13.75;;
20391;SDS011;10355;53.688;10.078;2023-02-14T08:00:07;29.65;;;13.45;;
20391;SDS011;10355;53.688;10.078;2023-02-14T08:02:53;32.75;;;14.63;;
20391;SDS011;10355;53.688;10.078;2023-02-14T08:05:37;29.83;;;13.70;;
20391;SDS011;10355;53.688;10.078;2023-02-14T08:08:20;30.85;;;13.35;;
20391;SDS011;10355;53.688;10.078;2023-02-14T08:11:03;30.50;;;13.10;;
20391;SDS011;10355;53.688;10.078;2023-02-14T08:13:45;30.05;;;13.25;;
20391;SDS011;10355;53.688;10.078;2023-02-14T08:16:28;27.92;;;12.60;;
20391;SDS011;10355;53.688;10.078;2023-02-14T08:19:12;34.10;;;14.00;;
20391;SDS011;10355;53.688;10.078;2023-02-14T08:21:56;31.02;;;13.13;;
20391;SDS011;10355;53.688;10.078;2023-02-14T08:24:39;27.98;;;13.18;;
20391;SDS011;10355;53.688;10.078;2023-02-14T08:27:22;30.85;;;13.05;;
20391;SDS011;10355;53.688;10.078;2023-02-14T08:30:05;29.00;;;12.65;;
20391;SDS011;10355;53.688;10.078;2023-02-14T08:32:48;26.83;;;12.18;;
20391;SDS011;10355;53.688;10.078;2023-02-14T08:35:31;25.77;;;11.60;;
20391;SDS011;10355;53.688;10.078;2023-02-14T08:38:15;27.65;;;11.98;;
20391;SDS011;10355;53.688;10.078;2023-02-14T08:40:58;27.45;;;12.02;;
20391;SDS011;10355;53.688;10.078;2023-02-14T08:43:44;25.05;;;11.52;;
20391;SDS011;10355;53.688;10.078;2023-02-14T08:46:27;25.75;;;11.73;;
20391;SDS011;10355;53.688;10.078;2023-02-14T08:49:10;28.23;;;12.15;;
20391;SDS011;10355;53.688;10.078;2023-02-14T08:51:53;25.70;;;11.85;;
20391;SDS011;10355;53.688;10.078;2023-02-14T08:54:37;29.70;;;13.35;;
20391;SDS011;10355;53.688;10.078;2023-02-14T08:57:19;25.30;;;11.75;;
20391;SDS011;10355;53.688;10.078;2023-02-14T09:00:02;26.25;;;11.88;;
20391;SDS011;10355;53.688;10.078;2023-02-14T09:02:48;22.77;;;10.07;;
20391;SDS011;10355;53.688;10.078;2023-02-14T09:05:31;26.52;;;11.18;;
20391;SDS011;10355;53.688;10.078;2023-02-14T09:08:14;21.52;;;10.60;;
20391;SDS011;10355;53.688;10.078;2023-02-14T09:10:58;22.67;;;10.68;;
20391;SDS011;10355;53.688;10.078;2023-02-14T09:13:42;20.65;;;10.15;;
20391;SDS011;10355;53.688;10.078;2023-02-14T09:16:24;21.35;;;10.23;;
20391;SDS011;10355;53.688;10.078;2023-02-14T09:19:07;21.05;;;10.13;;
20391;SDS011;10355;53.688;10.078;2023-02-14T09:21:50;23.95;;;10.82;;
20391;SDS011;10355;53.688;10.078;2023-02-14T09:24:33;25.58;;;11.65;;
20391;SDS011;10355;53.688;10.078;2023-02-14T09:27:17;24.88;;;10.07;;
20391;SDS011;10355;53.688;10.078;2023-02-14T09:30:00;22.88;;;10.85;;
20391;SDS011;10355;53.688;10.078;2023-02-14T09:32:42;22.38;;;10.10;;
20391;SDS011;10355;53.688;10.078;2023-02-14T09:35:25;18.98;;;9.50;;
20391;SDS011;10355;53.688;10.078;2023-02-14T09:38:08;20.35;;;9.52;;
20391;SDS011;10355;53.688;10.078;2023-02-14T09:41:03;21.58;;;10.10;;
20391;SDS011;10355;53.688;10.078;2023-02-14T09:43:49;25.92;;;9.98;;
20391;SDS011;10355;53.688;10.078;2023-02-14T09:46:35;19.60;;;9.95;;
20391;SDS011;10355;53.688;10.078;2023-02-14T09:49:23;19.67;;;9.82;;
20391;SDS011;10355;53.688;10.078;2023-02-14T09:52:11;20.42;;;9.77;;
20391;SDS011;10355;53.688;10.078;2023-02-14T09:54:57;20.92;;;9.75;;
20391;SDS011;10355;53.688;10.078;2023-02-14T09:57:43;16.75;;;8.57;;
20391;SDS011;10355;53.688;10.078;2023-02-14T10:00:31;20.90;;;9.48;;
20391;SDS011;10355;53.688;10.078;2023-02-14T10:06:21;20.20;;;9.68;;
20391;SDS011;10355;53.688;10.078;2023-02-14T10:09:10;17.40;;;9.23;;
20391;SDS011;10355;53.688;10.078;2023-02-14T10:11:55;18.67;;;8.55;;
20391;SDS011;10355;53.688;10.078;2023-02-14T10:14:39;18.30;;;9.65;;
20391;SDS011;10355;53.688;10.078;2023-02-14T10:17:26;20.27;;;8.95;;
20391;SDS011;10355;53.688;10.078;2023-02-14T10:20:16;21.08;;;9.90;;
20391;SDS011;10355;53.688;10.078;2023-02-14T10:23:02;21.55;;;10.18;;
20391;SDS011;10355;53.688;10.078;2023-02-14T10:25:47;20.38;;;10.02;;
20391;SDS011;10355;53.688;10.078;2023-02-14T10:28:32;22.15;;;10.68;;
20391;SDS011;10355;53.688;10.078;2023-02-14T10:31:19;19.77;;;9.98;;
20391;SDS011;10355;53.688;10.078;2023-02-14T10:34:04;17.58;;;8.85;;
20391;SDS011;10355;53.688;10.078;2023-02-14T10:36:54;18.10;;;9.32;;
20391;SDS011;10355;53.688;10.078;2023-02-14T10:39:41;21.40;;;10.02;;
20391;SDS011;10355;53.688;10.078;2023-02-14T10:42:28;18.90;;;10.00;;
20391;SDS011;10355;53.688;10.078;2023-02-14T10:45:15;21.10;;;9.98;;
20391;SDS011;10355;53.688;10.078;2023-02-14T10:48:00;18.45;;;9.32;;
20391;SDS011;10355;53.688;10.078;2023-02-14T10:50:48;22.73;;;10.57;;
20391;SDS011;10355;53.688;10.078;2023-02-14T10:53:35;20.42;;;9.80;;
20391;SDS011;10355;53.688;10.078;2023-02-14T10:56:21;20.70;;;10.15;;
20391;SDS011;10355;53.688;10.078;2023-02-14T10:59:07;21.17;;;10.00;;
20391;SDS011;10355;53.688;10.078;2023-02-14T11:01:53;20.75;;;9.63;;
20391;SDS011;10355;53.688;10.078;2023-02-14T11:04:37;21.70;;;9.98;;
20391;SDS011;10355;53.688;10.078;2023-02-14T11:07:21;21.23;;;9.60;;
20391;SDS011;10355;53.688;10.078;2023-02-14T11:10:07;18.67;;;9.15;;
20391;SDS011;10355;53.688;10.078;2023-02-14T11:12:50;21.42;;;10.15;;
20391;SDS011;10355;53.688;10.078;2023-02-14T11:15:34;21.58;;;10.10;;
20391;SDS011;10355;53.688;10.078;2023-02-14T11:18:19;19.10;;;9.52;;
20391;SDS011;10355;53.688;10.078;2023-02-14T11:25:05;21.92;;;10.25;;
20391;SDS011;10355;53.688;10.078;2023-02-14T11:27:49;19.80;;;9.80;;
20391;SDS011;10355;53.688;10.078;2023-02-14T11:30:34;22.42;;;9.85;;
20391;SDS011;10355;53.688;10.078;2023-02-14T11:33:27;21.50;;;10.00;;
20391;SDS011;10355;53.688;10.078;2023-02-14T11:36:11;20.73;;;10.13;;
20391;SDS011;10355;53.688;10.078;2023-02-14T11:38:55;19.45;;;10.50;;
20391;SDS011;10355;53.688;10.078;2023-02-14T11:41:46;18.98;;;9.55;;
20391;SDS011;10355;53.688;10.078;2023-02-14T11:44:30;20.77;;;10.07;;
20391;SDS011;10355;53.688;10.078;2023-02-14T11:47:18;20.02;;;9.93;;
20391;SDS011;10355;53.688;10.078;2023-02-14T11:50:01;17.67;;;9.43;;
20391;SDS011;10355;53.688;10.078;2023-02-14T11:52:47;20.42;;;9.93;;
20391;SDS011;10355;53.688;10.078;2023-02-14T11:55:31;18.95;;;9.40;;
20391;SDS011;10355;53.688;10.078;2023-02-14T11:58:24;18.92;;;9.77;;
20391;SDS011;10355;53.688;10.078;2023-02-14T12:01:09;21.85;;;10.55;;
20391;SDS011;10355;53.688;10.078;2023-02-14T12:03:53;20.67;;;9.85;;
20391;SDS011;10355;53.688;10.078;2023-02-14T12:06:37;22.67;;;10.27;;
20391;SDS011;10355;53.688;10.078;2023-02-14T12:09:24;21.73;;;9.48;;
20391;SDS011;10355;53.688;10.078;2023-02-14T12:12:14;22.58;;;10.18;;
20391;SDS011;10355;53.688;10.078;2023-02-14T12:15:04;18.77;;;10.02;;
20391;SDS011;10355;53.688;10.078;2023-02-14T12:17:55;20.55;;;10.02;;
20391;SDS011;10355;53.688;10.078;2023-02-14T12:20:40;20.08;;;9.98;;
20391;SDS011;10355;53.688;10.078;2023-02-14T12:23:26;17.77;;;9.55;;
20391;SDS011;10355;53.688;10.078;2023-02-14T12:26:14;20.88;;;10.00;;
20391;SDS011;10355;53.688;10.078;2023-02-14T12:29:00;22.80;;;9.57;;
20391;SDS011;10355;53.688;10.078;2023-02-14T12:31:47;20.17;;;10.48;;
20391;SDS011;10355;53.688;10.078;2023-02-14T12:34:30;20.40;;;9.73;;
20391;SDS011;10355;53.688;10.078;2023-02-14T12:37:16;21.27;;;10.15;;
20391;SDS011;10355;53.688;10.078;2023-02-14T12:40:04;19.98;;;9.68;;
20391;SDS011;10355;53.688;10.078;2023-02-14T12:43:00;18.27;;;9.50;;
20391;SDS011;10355;53.688;10.078;2023-02-14T12:45:51;20.48;;;10.60;;
20391;SDS011;10355;53.688;10.078;2023-02-14T12:48:41;20.13;;;10.02;;
20391;SDS011;10355;53.688;10.078;2023-02-14T12:51:26;22.27;;;10.57;;
20391;SDS011;10355;53.688;10.078;2023-02-14T12:54:20;18.55;;;9.45;;
20391;SDS011;10355;53.688;10.078;2023-02-14T12:57:11;22.10;;;10.98;;
20391;SDS011;10355;53.688;10.078;2023-02-14T12:59:59;22.15;;;10.73;;
20391;SDS011;10355;53.688;10.078;2023-02-14T13:05:45;19.73;;;9.43;;
20391;SDS011;10355;53.688;10.078;2023-02-14T13:08:36;20.10;;;10.20;;
20391;SDS011;10355;53.688;10.078;2023-02-14T13:11:24;24.15;;;10.50;;
20391;SDS011;10355;53.688;10.078;2023-02-14T13:14:22;19.17;;;9.65;;
20391;SDS011;10355;53.688;10.078;2023-02-14T13:17:12;22.17;;;10.43;;
20391;SDS011;10355;53.688;10.078;2023-02-14T13:19:59;17.83;;;9.40;;
20391;SDS011;10355;53.688;10.078;2023-02-14T13:22:45;21.73;;;10.32;;
20391;SDS011;10355;53.688;10.078;2023-02-14T13:25:28;21.48;;;10.18;;
20391;SDS011;10355;53.688;10.078;2023-02-14T13:28:14;20.83;;;10.20;;
20391;SDS011;10355;53.688;10.078;2023-02-14T13:30:57;20.25;;;10.02;;
20391;SDS011;10355;53.688;10.078;2023-02-14T13:33:42;19.00;;;9.70;;
20391;SDS011;10355;53.688;10.078;2023-02-14T13:36:25;17.65;;;9.30;;
20391;SDS011;10355;53.688;10.078;2023-02-14T13:39:10;21.65;;;10.07;;
20391;SDS011;10355;53.688;10.078;2023-02-14T13:41:57;21.00;;;10.20;;
20391;SDS011;10355;53.688;10.078;2023-02-14T13:44:41;22.60;;;10.25;;
20391;SDS011;10355;53.688;10.078;2023-02-14T13:47:24;20.95;;;10.13;;
20391;SDS011;10355;53.688;10.078;2023-02-14T13:50:16;17.88;;;9.88;;
20391;SDS011;10355;53.688;10.078;2023-02-14T13:52:59;19.20;;;9.57;;
20391;SDS011;10355;53.688;10.078;2023-02-14T13:55:43;20.75;;;10.38;;
20391;SDS011;10355;53.688;10.078;2023-02-14T13:58:29;21.67;;;10.70;;
20391;SDS011;10355;53.688;10.078;2023-02-14T14:01:29;19.52;;;9.93;;
20391;SDS011;10355;53.688;10.078;2023-02-14T14:07:14;18.88;;;9.70;;
20391;SDS011;10355;53.688;10.078;2023-02-14T14:09:57;18.13;;;9.20;;
20391;SDS011;10355;53.688;10.078;2023-02-14T14:12:45;20.58;;;9.75;;
20391;SDS011;10355;53.688;10.078;2023-02-14T14:15:27;19.15;;;9.75;;
20391;SDS011;10355;53.688;10.078;2023-02-14T14:18:29;20.67;;;9.73;;
20391;SDS011;10355;53.688;10.078;2023-02-14T14:21:20;19.50;;;9.95;;
20391;SDS011;10355;53.688;10.078;2023-02-14T14:24:10;22.83;;;9.60;;
20391;SDS011;10355;53.688;10.078;2023-02-14T14:26:56;22.30;;;9.80;;
20391;SDS011;10355;53.688;10.078;2023-02-14T14:29:42;17.75;;;9.23;;
20391;SDS011;10355;53.688;10.078;2023-02-14T14:32:27;17.60;;;8.63;;
20391;SDS011;10355;53.688;10.078;2023-02-14T14:35:15;20.02;;;9.63;;
20391;SDS011;10355;53.688;10.078;2023-02-14T14:37:59;16.83;;;8.93;;
20391;SDS011;10355;53.688;10.078;2023-02-14T14:40:43;20.33;;;9.85;;
20391;SDS011;10355;53.688;10.078;2023-02-14T14:43:28;19.52;;;9.38;;
20391;SDS011;10355;53.688;10.078;2023-02-14T14:46:12;19.60;;;10.02;;
20391;SDS011;10355;53.688;10.078;2023-02-14T14:48:56;19.48;;;9.50;;
20391;SDS011;10355;53.688;10.078;2023-02-14T14:51:38;18.30;;;8.80;;
20391;SDS011;10355;53.688;10.078;2023-02-14T14:54:21;23.48;;;10.82;;
20391;SDS011;10355;53.688;10.078;2023-02-14T14:57:10;18.33;;;9.85;;
20391;SDS011;10355;53.688;10.078;2023-02-14T15:03:04;20.25;;;10.23;;
20391;SDS011;10355;53.688;10.078;2023-02-14T15:05:48;21.75;;;10.65;;
20391;SDS011;10355;53.688;10.078;2023-02-14T15:08:31;22.65;;;10.85;;
20391;SDS011;10355;53.688;10.078;2023-02-14T15:11:15;19.58;;;10.50;;
20391;SDS011;10355;53.688;10.078;2023-02-14T15:14:19;19.75;;;10.38;;
20391;SDS011;10355;53.688;10.078;2023-02-14T15:17:03;18.67;;;9.77;;
20391;SDS011;10355;53.688;10.078;2023-02-14T15:19:49;20.70;;;10.35;;
20391;SDS011;10355;53.688;10.078;2023-02-14T15:22:35;23.67;;;11.00;;
20391;SDS011;10355;53.688;10.078;2023-02-14T15:25:22;21.50;;;10.60;;
20391;SDS011;10355;53.688;10.078;2023-02-14T15:28:10;25.25;;;11.40;;
20391;SDS011;10355;53.688;10.078;2023-02-14T15:30:55;20.90;;;10.45;;
20391;SDS011;10355;53.688;10.078;2023-02-14T15:33:38;24.15;;;11.35;;
20391;SDS011;10355;53.688;10.078;2023-02-14T15:36:22;20.33;;;11.00;;
20391;SDS011;10355;53.688;10.078;2023-02-14T15:39:05;22.98;;;10.45;;
20391;SDS011;10355;53.688;10.078;2023-02-14T15:41:51;21.73;;;10.45;;
20391;SDS011;10355;53.688;10.078;2023-02-14T15:44:34;18.73;;;8.82;;
20391;SDS011;10355;53.688;10.078;2023-02-14T15:47:16;21.13;;;9.52;;
20391;SDS011;10355;53.688;10.078;2023-02-14T15:49:59;21.60;;;10.68;;
20391;SDS011;10355;53.688;10.078;2023-02-14T15:52:44;19.38;;;9.63;;
20391;SDS011;10355;53.688;10.078;2023-02-14T15:55:27;19.13;;;9.25;;
20391;SDS011;10355;53.688;10.078;2023-02-14T15:58:12;19.20;;;10.20;;
20391;SDS011;10355;53.688;10.078;2023-02-14T16:01:00;23.23;;;9.88;;
20391;SDS011;10355;53.688;10.078;2023-02-14T16:03:47;20.27;;;9.90;;
20391;SDS011;10355;53.688;10.078;2023-02-14T16:06:32;21.02;;;10.05;;
20391;SDS011;10355;53.688;10.078;2023-02-14T16:09:23;21.45;;;10.30;;
20391;SDS011;10355;53.688;10.078;2023-02-14T16:12:20;19.23;;;9.60;;
20391;SDS011;10355;53.688;10.078;2023-02-14T16:15:09;20.35;;;9.68;;
20391;SDS011;10355;53.688;10.078;2023-02-14T16:17:57;19.13;;;10.15;;